createdAt,value
2018-06-08T00:01:39.514Z,6.93
2018-06-08T00:04:07.166Z,6.97
2018-06-08T00:06:34.756Z,6.70
2018-06-08T00:09:03.194Z,7.60
2018-06-08T00:11:30.849Z,6.57
2018-06-08T00:13:58.505Z,7.67
2018-06-08T00:16:26.155Z,8.70
2018-06-08T00:18:53.747Z,8.10
2018-06-08T00:21:21.317Z,7.17
2018-06-08T00:23:48.965Z,7.93
2018-06-08T00:26:16.609Z,7.57
2018-06-08T00:28:47.261Z,7.00
2018-06-08T00:31:14.881Z,7.10
2018-06-08T00:33:42.543Z,7.07
2018-06-08T00:36:10.187Z,7.90
2018-06-08T00:38:37.772Z,8.60
2018-06-08T00:41:05.353Z,7.83
2018-06-08T00:43:33.264Z,8.40
2018-06-08T00:46:00.894Z,9.00
2018-06-08T00:48:28.555Z,8.73
2018-06-08T00:50:56.181Z,8.53
2018-06-08T00:53:23.778Z,8.67
2018-06-08T00:55:51.437Z,8.63
2018-06-08T00:58:19.004Z,8.93
2018-06-08T01:00:46.728Z,7.90
2018-06-08T01:03:14.308Z,8.40
2018-06-08T01:05:41.882Z,7.10
2018-06-08T01:08:09.504Z,8.27
2018-06-08T01:10:37.204Z,7.97
2018-06-08T01:13:04.852Z,7.27
2018-06-08T01:15:32.500Z,8.93
2018-06-08T01:18:00.098Z,7.40
2018-06-08T01:20:27.765Z,7.30
2018-06-08T01:22:55.419Z,7.60
2018-06-08T01:25:23.081Z,6.87
2018-06-08T01:27:50.721Z,7.90
2018-06-08T01:30:18.384Z,9.40
2018-06-08T01:32:46.038Z,8.50
2018-06-08T01:35:13.627Z,8.87
2018-06-08T01:37:41.263Z,9.50
2018-06-08T01:40:08.775Z,16.20
2018-06-08T01:42:36.417Z,16.90
2018-06-08T01:45:04.078Z,16.13
2018-06-08T01:47:31.733Z,15.93
2018-06-08T01:49:59.310Z,15.23
2018-06-08T01:52:26.922Z,14.30
2018-06-08T01:54:54.536Z,14.00
2018-06-08T01:57:22.146Z,13.40
2018-06-08T01:59:49.688Z,12.70
2018-06-08T02:02:17.310Z,11.33
2018-06-08T02:04:44.950Z,12.83
2018-06-08T02:07:12.609Z,11.60
2018-06-08T02:09:40.269Z,11.50
2018-06-08T02:12:07.895Z,10.50
2018-06-08T02:14:35.494Z,9.83
2018-06-08T02:17:03.171Z,9.27
2018-06-08T02:19:30.810Z,10.17
2018-06-08T02:21:58.401Z,8.70
2018-06-08T02:24:26.037Z,10.17
2018-06-08T02:26:53.669Z,9.30
2018-06-08T02:29:21.333Z,9.80
2018-06-08T02:31:49.465Z,11.00
2018-06-08T02:34:17.149Z,10.17
2018-06-08T02:36:44.771Z,9.70
2018-06-08T02:39:12.381Z,9.57
2018-06-08T02:41:40.010Z,9.90
2018-06-08T02:44:07.591Z,8.87
2018-06-08T02:46:35.173Z,9.30
2018-06-08T02:49:02.823Z,9.83
2018-06-08T02:51:30.548Z,8.57
2018-06-08T02:53:58.119Z,8.50
2018-06-08T02:56:25.781Z,9.27
2018-06-08T02:58:53.404Z,7.53
2018-06-08T03:01:21.000Z,8.93
2018-06-08T03:03:48.599Z,8.40
2018-06-08T03:06:16.199Z,9.33
2018-06-08T03:08:43.811Z,9.70
2018-06-08T03:11:11.442Z,9.30
2018-06-08T03:13:39.030Z,9.90
2018-06-08T03:16:06.712Z,9.40
2018-06-08T03:18:34.334Z,9.33
2018-06-08T03:21:01.956Z,8.67
2018-06-08T03:23:29.554Z,9.90
2018-06-08T03:25:57.190Z,10.20
2018-06-08T03:28:24.813Z,9.53
2018-06-08T03:30:52.476Z,9.20
2018-06-08T03:33:20.090Z,8.93
2018-06-08T03:35:47.731Z,9.67
2018-06-08T03:38:15.425Z,8.73
2018-06-08T03:40:43.070Z,9.43
2018-06-08T03:43:10.775Z,9.10
2018-06-08T03:45:38.407Z,9.23
2018-06-08T03:48:06.067Z,8.90
2018-06-08T03:50:33.769Z,9.80
2018-06-08T03:53:01.375Z,10.63
2018-06-08T03:55:28.540Z,10.10
2018-06-08T03:57:56.204Z,10.03
2018-06-08T04:00:23.867Z,8.97
2018-06-08T04:02:51.496Z,7.73
2018-06-08T04:05:19.124Z,7.77
2018-06-08T04:07:46.704Z,7.97
2018-06-08T04:10:14.328Z,9.20
2018-06-08T04:12:41.894Z,8.03
2018-06-08T04:15:09.506Z,8.73
2018-06-08T04:17:38.691Z,8.60
2018-06-08T04:20:06.448Z,8.47
2018-06-08T04:22:34.081Z,8.03
2018-06-08T04:25:01.871Z,8.33
2018-06-08T04:27:29.423Z,7.77
2018-06-08T04:29:57.057Z,7.83
2018-06-08T04:32:24.691Z,7.73
2018-06-08T04:34:52.330Z,7.33
2018-06-08T04:37:19.989Z,7.67
2018-06-08T04:39:47.757Z,8.50
2018-06-08T04:42:15.415Z,8.27
2018-06-08T04:44:43.037Z,9.10
2018-06-08T04:47:10.708Z,8.87
2018-06-08T04:49:38.298Z,8.53
2018-06-08T04:52:06.019Z,7.80
2018-06-08T04:54:33.650Z,8.33
2018-06-08T04:57:01.266Z,7.67
2018-06-08T04:59:28.998Z,8.53
2018-06-08T05:01:56.615Z,8.13
2018-06-08T05:04:24.316Z,7.80
2018-06-08T05:06:51.926Z,7.10
2018-06-08T05:09:19.470Z,7.27
2018-06-08T05:11:47.122Z,7.73
2018-06-08T05:14:14.890Z,6.67
2018-06-08T05:16:42.502Z,7.60
2018-06-08T05:19:10.209Z,7.20
2018-06-08T05:21:37.901Z,7.40
2018-06-08T05:24:05.535Z,7.97
2018-06-08T05:26:33.090Z,8.00
2018-06-08T05:29:00.754Z,5.90
2018-06-08T05:31:28.369Z,7.27
2018-06-08T05:33:56.077Z,7.20
2018-06-08T05:36:23.643Z,7.60
2018-06-08T05:38:51.228Z,7.20
2018-06-08T05:41:18.968Z,6.27
2018-06-08T05:43:46.632Z,7.93
2018-06-08T05:46:14.253Z,7.63
2018-06-08T05:48:41.883Z,6.50
2018-06-08T05:51:09.498Z,6.77
2018-06-08T05:53:37.134Z,7.20
2018-06-08T05:56:04.758Z,6.97
2018-06-08T05:58:32.320Z,6.03
2018-06-08T06:00:59.964Z,6.90
2018-06-08T06:03:27.578Z,6.37
2018-06-08T06:05:55.182Z,7.03
2018-06-08T06:08:22.788Z,7.60
2018-06-08T06:10:50.385Z,6.30
2018-06-08T06:13:18.010Z,7.10
2018-06-08T06:15:45.639Z,7.00
2018-06-08T06:18:13.316Z,6.53
2018-06-08T06:20:40.971Z,7.03
2018-06-08T06:23:08.605Z,7.10
2018-06-08T06:25:36.191Z,7.13
2018-06-08T06:28:03.959Z,7.30
2018-06-08T06:30:31.618Z,7.73
2018-06-08T06:32:59.280Z,9.73
2018-06-08T06:35:27.232Z,8.13
2018-06-08T06:37:54.846Z,6.63
2018-06-08T06:40:22.495Z,7.53
2018-06-08T06:42:50.108Z,6.23
2018-06-08T06:45:17.794Z,7.57
2018-06-08T06:47:45.457Z,7.57
2018-06-08T06:50:13.095Z,6.57
2018-06-08T06:52:40.748Z,7.10
2018-06-08T06:55:08.366Z,7.40
2018-06-08T06:57:36.069Z,7.50
2018-06-08T07:00:03.740Z,7.73
2018-06-08T07:02:31.326Z,9.23
2018-06-08T07:04:58.929Z,6.97
2018-06-08T07:07:26.562Z,9.30
2018-06-08T07:09:54.855Z,7.90
2018-06-08T07:12:22.530Z,6.97
2018-06-08T07:14:50.190Z,7.17
2018-06-08T07:17:17.843Z,7.60
2018-06-08T07:19:45.471Z,7.73
2018-06-08T07:22:13.153Z,7.93
2018-06-08T07:24:40.762Z,7.50
2018-06-08T07:27:08.543Z,7.33
2018-06-08T07:29:36.193Z,9.17
2018-06-08T07:32:03.859Z,7.90
2018-06-08T07:34:31.535Z,8.07
2018-06-08T07:36:59.744Z,8.20
2018-06-08T07:39:27.398Z,7.60
2018-06-08T07:41:54.980Z,8.53
2018-06-08T07:44:23.342Z,9.07
2018-06-08T07:46:51.084Z,8.73
2018-06-08T07:49:18.902Z,8.30
2018-06-08T07:51:46.558Z,10.10
2018-06-08T07:54:14.185Z,8.40
2018-06-08T07:56:41.843Z,7.87
2018-06-08T07:59:09.571Z,8.20
2018-06-08T08:01:37.208Z,7.70
2018-06-08T08:04:05.146Z,9.77
2018-06-08T08:06:32.789Z,7.20
2018-06-08T08:09:00.456Z,8.10
2018-06-08T08:11:28.152Z,7.43
2018-06-08T08:13:55.723Z,7.50
2018-06-08T08:16:23.415Z,8.70
2018-06-08T08:18:50.996Z,8.33
2018-06-08T08:21:18.619Z,7.90
2018-06-08T08:23:46.339Z,7.43
2018-06-08T08:26:13.961Z,7.70
2018-06-08T08:28:41.592Z,7.03
2018-06-08T08:31:09.208Z,7.67
2018-06-08T08:33:36.834Z,7.77
2018-06-08T08:36:04.565Z,10.10
2018-06-08T08:38:32.194Z,8.60
2018-06-08T08:40:59.814Z,7.60
2018-06-08T08:43:27.448Z,8.73
2018-06-08T08:45:55.120Z,8.57
2018-06-08T08:48:22.746Z,7.23
2018-06-08T08:50:50.428Z,9.03
2018-06-08T08:53:18.062Z,7.90
2018-06-08T08:55:45.694Z,7.83
2018-06-08T08:58:13.338Z,6.90
2018-06-08T09:00:40.977Z,7.77
2018-06-08T09:03:08.657Z,7.10
2018-06-08T09:05:36.280Z,6.93
2018-06-08T09:08:05.026Z,6.97
2018-06-08T09:10:32.702Z,8.07
2018-06-08T09:13:00.337Z,7.87
2018-06-08T09:15:28.005Z,7.03
2018-06-08T09:17:55.639Z,8.30
2018-06-08T09:20:23.297Z,7.20
2018-06-08T09:22:50.893Z,8.00
2018-06-08T09:25:18.641Z,7.90
2018-06-08T09:27:46.342Z,6.97
2018-06-08T09:30:14.063Z,7.10
2018-06-08T09:32:41.646Z,5.83
2018-06-08T09:35:09.258Z,6.40
2018-06-08T09:37:36.923Z,6.70
2018-06-08T09:40:04.927Z,5.93
2018-06-08T09:42:32.583Z,5.60
2018-06-08T09:45:00.214Z,6.20
2018-06-08T09:47:27.870Z,6.03
2018-06-08T09:49:55.478Z,5.43
2018-06-08T09:52:23.081Z,4.87
2018-06-08T09:54:50.741Z,5.53
2018-06-08T09:57:18.337Z,5.20
2018-06-08T09:59:45.979Z,5.63
2018-06-08T10:02:13.633Z,5.10
2018-06-08T10:04:41.771Z,5.20
2018-06-08T10:07:09.401Z,5.37
2018-06-08T10:09:36.960Z,5.17
2018-06-08T10:12:04.585Z,6.27
2018-06-08T10:14:32.243Z,5.57
2018-06-08T10:16:59.889Z,6.00
2018-06-08T10:19:27.507Z,6.40
2018-06-08T10:21:55.223Z,5.67
2018-06-08T10:24:22.801Z,6.10
2018-06-08T10:26:50.421Z,5.53
2018-06-08T10:29:17.982Z,5.60
2018-06-08T10:31:45.664Z,6.40
2018-06-08T10:34:13.303Z,5.70
2018-06-08T10:36:40.942Z,6.57
2018-06-08T10:39:08.554Z,6.40
2018-06-08T10:41:36.110Z,6.57
2018-06-08T10:44:03.726Z,7.10
2018-06-08T10:46:31.362Z,6.03
2018-06-08T10:48:59.021Z,7.20
2018-06-08T10:51:26.595Z,5.83
2018-06-08T10:53:54.249Z,6.50
2018-06-08T10:56:21.927Z,6.40
2018-06-08T10:58:49.599Z,6.00
2018-06-08T11:01:17.266Z,7.90
2018-06-08T11:03:44.933Z,5.90
2018-06-08T11:06:12.601Z,6.20
2018-06-08T11:08:40.182Z,6.30
2018-06-08T11:11:08.436Z,6.23
2018-06-08T11:13:36.126Z,6.57
2018-06-08T11:16:03.762Z,6.77
2018-06-08T11:18:31.356Z,5.33
2018-06-08T11:20:59.014Z,5.10
2018-06-08T11:23:26.606Z,6.23
2018-06-08T11:25:54.294Z,5.40
2018-06-08T11:28:21.990Z,6.63
2018-06-08T11:30:49.584Z,6.20
2018-06-08T11:33:17.238Z,6.27
2018-06-08T11:35:44.881Z,5.20
2018-06-08T11:38:12.509Z,4.93
2018-06-08T11:40:40.190Z,6.57
2018-06-08T11:43:07.836Z,5.77
2018-06-08T11:45:35.639Z,5.90
2018-06-08T11:48:03.325Z,5.70
2018-06-08T11:50:30.964Z,5.73
2018-06-08T11:52:58.536Z,5.93
2018-06-08T11:55:26.489Z,6.07
2018-06-08T11:57:54.216Z,6.00
2018-06-08T12:00:21.942Z,5.00
2018-06-08T12:02:49.577Z,6.13
2018-06-08T12:05:17.182Z,5.37
2018-06-08T12:07:44.793Z,5.33
2018-06-08T12:10:12.469Z,3.37
2018-06-08T12:12:40.121Z,3.60
2018-06-08T12:15:07.860Z,4.30
2018-06-08T12:17:35.551Z,2.87
2018-06-08T12:20:03.251Z,3.47
2018-06-08T12:22:30.980Z,3.53
2018-06-08T12:24:58.584Z,3.80
2018-06-08T12:27:26.359Z,3.17
2018-06-08T12:29:53.982Z,3.50
2018-06-08T12:32:21.654Z,3.40
2018-06-08T12:34:49.258Z,2.70
2018-06-08T12:37:16.844Z,3.27
2018-06-08T12:39:44.454Z,3.30
2018-06-08T12:42:12.070Z,3.63
2018-06-08T12:44:39.709Z,3.07
2018-06-08T12:47:07.334Z,3.10
2018-06-08T12:49:35.038Z,3.47
2018-06-08T12:52:02.693Z,3.20
2018-06-08T12:54:30.326Z,2.80
2018-06-08T12:56:57.968Z,2.97
2018-06-08T12:59:25.719Z,3.73
2018-06-08T13:01:53.401Z,3.70
2018-06-08T13:04:21.261Z,3.20
2018-06-08T13:06:48.901Z,3.30
2018-06-08T13:09:16.491Z,3.50
2018-06-08T13:11:44.116Z,4.60
2018-06-08T13:14:11.813Z,3.73
2018-06-08T13:16:39.397Z,2.93
2018-06-08T13:19:07.089Z,3.43
2018-06-08T13:21:34.752Z,3.00
2018-06-08T13:24:02.421Z,2.73
2018-06-08T13:26:30.070Z,3.00
2018-06-08T13:28:57.736Z,3.00
2018-06-08T13:31:25.319Z,2.60
2018-06-08T13:33:52.958Z,4.07
2018-06-08T13:36:20.892Z,3.20
2018-06-08T13:38:48.545Z,4.60
2018-06-08T13:41:16.155Z,3.13
2018-06-08T13:43:44.055Z,3.03
2018-06-08T13:46:53.074Z,3.00
2018-06-08T13:49:20.733Z,2.80
2018-06-08T13:51:49.195Z,2.70
2018-06-08T13:54:16.900Z,2.67
2018-06-08T13:56:44.520Z,3.23
2018-06-08T13:59:12.085Z,3.30
2018-06-08T14:01:39.739Z,3.90
2018-06-08T14:04:07.449Z,4.47
2018-06-08T14:06:35.067Z,3.80
2018-06-08T14:09:04.570Z,5.00
2018-06-08T14:11:32.231Z,5.30
2018-06-08T14:13:59.826Z,5.00
2018-06-08T14:16:27.450Z,5.00
2018-06-08T14:18:55.116Z,5.07
2018-06-08T14:21:22.791Z,5.87
2018-06-08T14:23:51.000Z,5.57
2018-06-08T14:26:18.640Z,6.37
2018-06-08T14:28:46.305Z,5.40
2018-06-08T14:31:13.981Z,6.20
2018-06-08T14:33:41.709Z,6.33
2018-06-08T14:36:09.460Z,6.33
2018-06-08T14:38:37.077Z,6.10
2018-06-08T14:41:04.691Z,5.23
2018-06-08T14:43:32.367Z,5.70
2018-06-08T14:46:00.120Z,5.97
2018-06-08T14:48:27.723Z,6.30
2018-06-08T14:50:55.374Z,5.73
2018-06-08T14:53:23.061Z,6.10
2018-06-08T14:55:50.727Z,6.50
2018-06-08T14:58:18.399Z,6.00
2018-06-08T15:00:46.095Z,6.30
2018-06-08T15:03:13.729Z,5.60
2018-06-08T15:05:41.413Z,5.23
2018-06-08T15:08:09.137Z,4.90
2018-06-08T15:10:36.855Z,4.70
2018-06-08T15:13:04.585Z,5.10
2018-06-08T15:15:32.200Z,4.80
2018-06-08T15:17:59.829Z,4.50
2018-06-08T15:20:27.469Z,3.83
2018-06-08T15:22:55.059Z,4.07
2018-06-08T15:25:22.705Z,4.20
2018-06-08T15:27:50.302Z,4.27
2018-06-08T15:30:17.930Z,4.30
2018-06-08T15:32:45.522Z,3.50
2018-06-08T15:35:13.271Z,3.60
2018-06-08T15:37:40.849Z,4.77
2018-06-08T15:40:08.537Z,4.47
2018-06-08T15:42:36.178Z,4.80
2018-06-08T15:45:03.862Z,4.50
2018-06-08T15:47:31.495Z,3.90
2018-06-08T15:49:59.076Z,4.20
2018-06-08T15:52:26.712Z,4.50
2018-06-08T15:54:54.350Z,5.23
2018-06-08T15:57:22.037Z,3.73
2018-06-08T15:59:49.725Z,4.60
2018-06-08T16:02:17.637Z,5.97
2018-06-08T16:04:45.545Z,5.20
2018-06-08T16:07:13.163Z,5.13
2018-06-08T16:09:40.757Z,5.20
2018-06-08T16:12:08.357Z,4.97
2018-06-08T16:14:36.041Z,5.40
2018-06-08T16:17:04.016Z,4.57
2018-06-08T16:19:31.652Z,4.27
2018-06-08T16:21:59.281Z,4.73
2018-06-08T16:24:26.941Z,4.70
2018-06-08T16:26:54.635Z,4.30
2018-06-08T16:29:22.367Z,5.03
2018-06-08T16:31:50.034Z,5.00
2018-06-08T16:34:17.728Z,6.43
2018-06-08T16:36:45.439Z,5.43
2018-06-08T16:39:13.063Z,4.93
2018-06-08T16:41:40.686Z,4.60
2018-06-08T16:44:08.354Z,5.30
2018-06-08T16:46:36.004Z,4.40
2018-06-08T16:49:03.689Z,5.43
2018-06-08T16:51:31.360Z,5.63
2018-06-08T16:53:58.946Z,5.93
2018-06-08T16:56:26.628Z,5.40
2018-06-08T16:58:54.269Z,5.53
2018-06-08T17:01:21.918Z,5.90
2018-06-08T17:03:49.537Z,5.77
2018-06-08T17:06:17.174Z,5.90
2018-06-08T17:08:44.947Z,6.10
2018-06-08T17:11:12.617Z,6.13
2018-06-08T17:13:40.292Z,6.50
2018-06-08T17:16:07.943Z,6.37
2018-06-08T17:18:35.621Z,5.90
2018-06-08T17:21:03.331Z,5.63
2018-06-08T17:23:30.964Z,5.40
2018-06-08T17:25:58.615Z,6.77
2018-06-08T17:28:26.318Z,7.23
2018-06-08T17:30:54.005Z,7.40
2018-06-08T17:33:21.618Z,5.97
2018-06-08T17:35:49.238Z,6.47
2018-06-08T17:38:16.927Z,6.80
2018-06-08T17:40:44.655Z,6.80
2018-06-08T17:43:12.350Z,6.70
2018-06-08T17:45:40.002Z,6.50
2018-06-08T17:48:07.714Z,7.70
2018-06-08T17:50:35.300Z,7.90
2018-06-08T17:53:02.929Z,9.77
2018-06-08T17:55:30.580Z,8.93
2018-06-08T17:57:58.433Z,6.90
2018-06-08T18:00:26.093Z,7.07
2018-06-08T18:02:53.783Z,7.43
2018-06-08T18:05:21.420Z,7.70
2018-06-08T18:07:49.081Z,6.97
2018-06-08T18:10:16.737Z,9.13
2018-06-08T18:12:44.401Z,8.10
2018-06-08T18:15:12.065Z,7.50
2018-06-08T18:17:39.776Z,8.07
2018-06-08T18:20:07.399Z,7.90
2018-06-08T18:22:35.055Z,7.60
2018-06-08T18:25:02.682Z,8.80
2018-06-08T18:27:30.412Z,8.43
2018-06-08T18:29:58.040Z,8.00
2018-06-08T18:32:25.719Z,7.83
2018-06-08T18:34:53.334Z,8.30
2018-06-08T18:37:21.001Z,7.27
2018-06-08T18:39:48.659Z,7.00
2018-06-08T18:42:16.405Z,6.97
2018-06-08T18:44:44.030Z,7.63
2018-06-08T18:47:11.637Z,8.50
2018-06-08T18:49:39.273Z,5.73
2018-06-08T18:52:06.925Z,7.23
2018-06-08T18:54:34.521Z,6.13
2018-06-08T18:57:02.191Z,6.60
2018-06-08T18:59:29.868Z,6.17
2018-06-08T19:01:57.674Z,5.40
2018-06-08T19:04:25.308Z,4.00
2018-06-08T19:06:52.923Z,3.70
2018-06-08T19:09:20.522Z,3.23
2018-06-08T19:11:48.458Z,3.97
2018-06-08T19:14:16.130Z,2.73
2018-06-08T19:16:43.890Z,2.77
2018-06-08T19:19:11.518Z,3.30
2018-06-08T19:21:39.177Z,3.63
2018-06-08T19:24:06.788Z,4.60
2018-06-08T19:26:34.467Z,3.27
2018-06-08T19:29:02.093Z,3.90
2018-06-08T19:31:29.729Z,5.40
2018-06-08T19:33:57.419Z,4.10
2018-06-08T19:36:25.040Z,4.27
2018-06-08T19:38:52.673Z,4.40
2018-06-08T19:41:20.372Z,5.73
2018-06-08T19:43:47.985Z,5.87
2018-06-08T19:46:15.695Z,4.90
2018-06-08T19:48:43.305Z,5.03
2018-06-08T19:51:10.929Z,5.90
2018-06-08T19:53:38.589Z,5.00
2018-06-08T19:56:06.521Z,5.83
2018-06-08T19:58:34.289Z,4.80
2018-06-08T20:01:02.133Z,6.43
2018-06-08T20:03:29.871Z,5.00
2018-06-08T20:05:57.843Z,5.90
2018-06-08T20:08:25.607Z,5.43
2018-06-08T20:10:53.323Z,6.67
2018-06-08T20:13:21.246Z,6.00
2018-06-08T20:15:49.038Z,6.20
2018-06-08T20:18:16.975Z,6.27
2018-06-08T20:20:44.910Z,5.70
2018-06-08T20:23:12.694Z,7.30
2018-06-08T20:25:40.388Z,7.33
2018-06-08T20:28:08.712Z,7.37
2018-06-08T20:30:36.446Z,7.20
2018-06-08T20:33:04.726Z,7.73
2018-06-08T20:35:32.708Z,7.40
2018-06-08T20:38:00.807Z,7.67
2018-06-08T20:40:28.525Z,7.07
2018-06-08T20:42:56.246Z,6.67
2018-06-08T20:45:24.036Z,7.17
2018-06-08T20:47:51.789Z,19.90
2018-06-08T20:50:19.593Z,6.43
2018-06-08T20:52:47.449Z,7.00
2018-06-08T20:55:15.417Z,8.27
2018-06-08T20:57:58.696Z,6.40
2018-06-08T21:00:26.490Z,7.57
2018-06-08T21:02:54.281Z,6.73
2018-06-08T21:05:22.001Z,6.17
2018-06-08T21:07:49.775Z,6.27
2018-06-08T21:10:17.562Z,6.73
2018-06-08T21:12:45.221Z,7.50
2018-06-08T21:15:12.940Z,7.50
2018-06-08T21:17:40.805Z,7.87
2018-06-08T21:20:08.593Z,8.03
2018-06-08T21:22:36.352Z,8.03
2018-06-08T21:25:04.176Z,7.57
2018-06-08T21:27:32.065Z,7.60
2018-06-08T21:29:59.907Z,8.30
2018-06-08T21:32:27.566Z,7.70
2018-06-08T21:34:55.294Z,6.77
2018-06-08T21:37:22.998Z,8.07
2018-06-08T21:39:50.718Z,8.70
2018-06-08T21:42:18.823Z,6.90
2018-06-08T21:44:46.660Z,8.37
2018-06-08T21:47:14.393Z,7.50
2018-06-08T21:49:42.164Z,7.77
2018-06-08T21:52:10.030Z,8.97
2018-06-08T21:54:37.800Z,7.90
2018-06-08T21:57:05.690Z,7.80
2018-06-08T21:59:33.434Z,8.40
2018-06-08T22:02:01.342Z,8.50
2018-06-08T22:04:29.145Z,8.07
2018-06-08T22:06:57.152Z,8.00
2018-06-08T22:09:25.010Z,7.57
2018-06-08T22:11:52.929Z,10.03
2018-06-08T22:14:20.712Z,11.70
2018-06-08T22:16:48.461Z,8.80
2018-06-08T22:19:16.177Z,9.90
2018-06-08T22:21:44.011Z,10.50
2018-06-08T22:24:11.721Z,8.50
2018-06-08T22:26:39.573Z,10.90
2018-06-08T22:29:07.634Z,15.93
2018-06-08T22:31:35.417Z,9.40
2018-06-08T22:34:03.150Z,9.80
2018-06-08T22:36:30.868Z,9.17
2018-06-08T22:38:58.566Z,8.80
2018-06-08T22:41:26.276Z,9.47
2018-06-08T22:43:54.056Z,9.87
2018-06-08T22:46:21.853Z,9.70
2018-06-08T22:48:49.526Z,10.77
2018-06-08T22:51:17.304Z,10.17
2018-06-08T22:53:44.936Z,9.40
2018-06-08T22:56:12.639Z,10.30
2018-06-08T22:58:40.410Z,9.80
2018-06-08T23:01:08.269Z,9.30
2018-06-08T23:03:37.126Z,10.73
2018-06-08T23:06:04.890Z,10.63
2018-06-08T23:08:32.745Z,12.20
2018-06-08T23:11:00.542Z,11.73
2018-06-08T23:13:28.316Z,12.23
2018-06-08T23:15:56.937Z,10.17
2018-06-08T23:18:24.663Z,11.80
2018-06-08T23:20:52.381Z,10.97
2018-06-08T23:23:20.111Z,10.77
2018-06-08T23:25:47.821Z,9.60
2018-06-08T23:28:15.525Z,10.27
2018-06-08T23:30:43.265Z,10.73
2018-06-08T23:33:10.960Z,11.60
2018-06-08T23:35:38.827Z,11.20
2018-06-08T23:38:06.483Z,11.13
2018-06-08T23:40:34.127Z,11.57
2018-06-08T23:43:03.391Z,11.37
2018-06-08T23:45:31.204Z,11.77
2018-06-08T23:47:59.000Z,11.50
2018-06-08T23:50:26.682Z,12.30
2018-06-08T23:52:54.447Z,13.20
2018-06-08T23:55:22.148Z,12.83
2018-06-08T23:57:49.850Z,12.47
